Station WCXA2 - Ward Cove, AK Image indicating link to RSS feed of recent meteorological observations for station WCXA2


Conditions at WCXA2 as of
(9:13 pm AKDT on 06/20/2024)
0513 GMT on 06/21/2024:
     

Click on the graph icon in the table below to see a time series plot of the last five days of that observation.

5-day plot - Wind Direction Wind Direction (WDIR): NW ( 310 deg true )
5-day plot - Wind Speed Wind Speed (WSPD): 2 kts
5-day plot - Wind Gust Wind Gust (GST): 4 kts
5-day plot - Air Temperature Air Temperature (ATMP): 59.9 °F
5-day plot - Wind Speed at 10 Meters Wind Speed at 10 meters (WSPD10M): 2 kts
5-day plot - Wind Speed at 20 Meters Wind Speed at 20 meters (WSPD20M): 2 kts
5-day plot -  Wind Speed, Wind Gust and Atmospheric Pressure Combined plot of Wind Speed, Gust, and Air Pressure
Previous observations
TIME
(AKDT)
5-day plot - Wind Direction
WDIR
 
5-day plot - Wind Speed
WSPD
kts
5-day plot - Wind Gust
GST
kts
5-day plot - Wave Height
WVHT
ft
5-day plot - Dominant Wave Period
DPD
sec
5-day plot - Average Wave Period
APD
sec
5-day plot - Mean Wave Direction
MWD
 
5-day plot - Atmospheric Pressure
PRES
in
5-day plot - Pressure Tendency
PTDY
in
5-day plot - Air Temperature
ATMP
°F
5-day plot - Water Temperature
WTMP
°F
5-day plot - Dew Point
DEWP
°F
5-day plot - Salinity
SAL
psu
5-day plot - Visibility
VIS
nmi
5-day plot - Tide (above MLLW)
TIDE
ft
2024-06-20 09:03 pmWSW 2 5------ 60.6-----
2024-06-20 08:53 pmSSW 3 6------ 61.0-----
2024-06-20 08:43 pmSSW 4 7------ 61.2-----
2024-06-20 08:33 pmSSW 5 10------ 61.5-----
2024-06-20 08:24 pmSSW 9 17------ 61.3-----
2024-06-20 08:13 pm SW 10 16------ 61.5-----
2024-06-20 08:03 pm SW 12 17------ 61.7-----
2024-06-20 07:53 pm SW 13 17------ 62.1-----
2024-06-20 07:43 pmSSW 13 17------ 62.4-----
2024-06-20 07:33 pm SW 12 18------ 62.8-----
2024-06-20 07:23 pmSSW 12 21------ 63.5-----
2024-06-20 07:13 pmSSW 11 16------ 64.4-----
2024-06-20 07:03 pmSSW 10 17------ 64.9-----
2024-06-20 06:53 pm S 11 17------ 65.3-----
2024-06-20 06:43 pmSSW 10 15------ 65.3-----
2024-06-20 06:33 pmSSW 10 16------ 65.1-----
2024-06-20 06:23 pmSSW 12 18------ 64.9-----
2024-06-20 06:13 pmSSW 11 18------ 65.7-----
2024-06-20 06:04 pmSSW 12 16------ 65.5-----
2024-06-20 05:53 pmSSW 12 17------ 65.5-----
2024-06-20 05:43 pmSSW 11 18------ 65.7-----
2024-06-20 05:33 pmSSW 10 18------ 66.0-----
2024-06-20 05:23 pmSSW 10 16------ 66.2-----
2024-06-20 05:13 pm S 10 17------ 66.0-----
2024-06-20 05:03 pmSSW 11 17------ 66.0-----
2024-06-20 04:53 pmSSW 10 15------ 65.8-----
2024-06-20 04:43 pmSSW 12 19------ 65.7-----
2024-06-20 04:33 pmSSW 12 17------ 65.8-----
2024-06-20 04:23 pmSSW 11 16------ 65.7-----
2024-06-20 04:13 pmSSW 10 16------ 66.0-----
2024-06-20 03:53 pmSSW 11 17------ 66.2-----
2024-06-20 03:43 pmSSW 12 17------ 65.8-----
2024-06-20 03:33 pmSSW 12 18------ 65.8-----
2024-06-20 03:23 pmSSW 12 16------ 65.7-----
2024-06-20 03:13 pmSSW 13 19------ 65.5-----
2024-06-20 03:03 pmSSW 12 16------ 65.8-----
2024-06-20 02:53 pmSSW 10 16------ 65.8-----
2024-06-20 02:43 pmSSW 11 15------ 65.5-----
2024-06-20 02:33 pm SW 10 14------ 65.5-----
2024-06-20 02:23 pmSSW 10 13------ 65.8-----
2024-06-20 02:13 pmSSW 7 13------ 66.0-----
2024-06-20 02:03 pmSSW 8 14------ 65.5-----
2024-06-20 01:53 pmSSW 10 15------ 65.3-----
2024-06-20 01:43 pmSSW 8 12------ 65.7-----
2024-06-20 01:33 pmSSW 10 15------ 65.3-----
2024-06-20 01:23 pmSSW 8 14------ 65.5-----
2024-06-20 01:13 pmSSW 9 13------ 65.5-----
2024-06-20 12:53 pmSSE 5 10------ 65.3-----
2024-06-20 12:43 pm S 6 11------ 64.9-----
2024-06-20 12:33 pmSSW 10 14------ 64.4-----
2024-06-20 12:23 pmWSW 7 12------ 63.7-----
2024-06-20 12:13 pmWSW 7 14------ 62.2-----
2024-06-20 12:03 pmWSW 10 15------ 61.9-----
2024-06-20 11:43 am W 9 15------ 61.3-----
2024-06-20 11:33 amWSW 9 14------ 60.4-----
2024-06-20 11:24 am W 9 14------ 60.4-----
2024-06-20 11:13 amWSW 9 14------ 61.0-----
2024-06-20 11:03 am W 6 12------ 61.3-----
2024-06-20 10:53 am W 7 11------ 61.2-----
2024-06-20 10:43 am W 7 13------ 61.2-----
2024-06-20 10:33 am E 1 4------ 61.7-----
2024-06-20 10:23 am SE 2 3------ 60.4-----
2024-06-20 10:13 am NE 3 7------ 59.9-----
2024-06-20 10:03 amNNE 4 9------ 59.5-----
2024-06-20 09:53 am NE 2 6------ 59.2-----
2024-06-20 09:43 amWSW 4 8------ 57.6-----
2024-06-20 09:33 amWSW 5 9------ 57.2-----
2024-06-20 09:24 amWSW 9 10------ 56.1-----
2024-06-20 09:13 am SW 9 12------ 55.8-----
2024-06-20 09:03 am SW 10 12------ 55.4-----
2024-06-20 08:54 amWSW 9 12------ 55.0-----
2024-06-20 08:43 am SW 10 13------ 54.9-----
2024-06-20 08:33 am SW 9 13------ 54.7-----
2024-06-20 08:24 am SW 9 12------ 54.5-----
2024-06-20 08:13 am SW 8 10------ 54.3-----
2024-06-20 08:03 am SW 9 11------ 54.1-----
2024-06-20 07:53 am SW 6 9------ 54.7-----
2024-06-20 07:43 am SW 6 9------ 54.5-----
2024-06-20 07:33 am SW 6 9------ 54.3-----
2024-06-20 07:23 am SW 6 11------ 54.3-----
2024-06-20 07:13 am SW 5 6------ 54.3-----
2024-06-20 07:03 am SW 3 5------ 54.1-----
2024-06-20 06:53 am SW 2 4------ 54.1-----
2024-06-20 06:43 amSSW 2 3------ 54.1-----
2024-06-20 06:33 am- 0 2------ 54.5-----
2024-06-20 06:23 am- 0 2------ 55.2-----
2024-06-20 06:13 am- 0 2------ 54.3-----
2024-06-20 06:03 am- 0 2------ 53.6-----
2024-06-20 05:53 am NE 2 3------ 52.2-----
2024-06-20 05:43 amENE 2 3------ 52.0-----
2024-06-20 05:33 am NE 3 5------ 51.1-----
2024-06-20 05:23 amNNE 2 4------ 51.3-----
2024-06-20 05:13 amNNE 3 4------ 50.5-----
2024-06-20 05:03 amENE 3 4------ 50.7-----
2024-06-20 04:53 amENE 2 3------ 51.1-----
2024-06-20 04:43 amNNE 1 3------ 51.3-----
2024-06-20 04:33 amNNW 2 5------ 50.9-----
2024-06-20 04:23 am W 1 2------ 50.4-----
2024-06-20 04:13 am- 0 2------ 50.2-----
2024-06-20 04:03 am NE 3 5------ 50.2-----
2024-06-20 03:53 am NE 4 5------ 50.4-----
2024-06-20 03:43 amNNE 3 4------ 50.7-----
2024-06-20 03:33 amNNE 2 3------ 50.7-----
2024-06-20 03:23 amENE 3 4------ 50.5-----
2024-06-20 03:13 amNNE 3 4------ 51.1-----
2024-06-20 03:03 amNNE 1 3------ 51.1-----
2024-06-20 02:53 amNNE 2 3------ 51.1-----
2024-06-20 02:43 am N 1 3------ 51.4-----
2024-06-20 02:33 am NE 3 4------ 51.3-----
2024-06-20 02:23 am NE 2 4------ 51.6-----
2024-06-20 02:13 amNNE 2 3------ 51.8-----
2024-06-20 02:03 amNNW 2 3------ 51.8-----
2024-06-20 01:53 amNNE 1 3------ 51.6-----
2024-06-20 01:43 am NE 3 4------ 52.0-----
2024-06-20 01:33 amENE 2 3------ 52.2-----
2024-06-20 01:23 amENE 2 3------ 52.3-----
2024-06-20 01:03 amENE 3 4------ 52.9-----
2024-06-20 12:53 amENE 3 3------ 53.1-----
2024-06-20 12:43 am NE 3 4------ 53.6-----
2024-06-20 12:33 amNNW 2 3------ 54.0-----
2024-06-20 12:23 am SW 1 2------ 54.3-----
2024-06-20 12:14 am S 2 3------ 54.3-----
2024-06-20 12:03 am NW 2 5------ 54.3-----
2024-06-19 11:53 pmNNW 3 5------ 54.5-----
2024-06-19 11:43 pm N 1 3------ 54.9-----
2024-06-19 11:33 pmENE 2 3------ 55.2-----
2024-06-19 11:23 pm N 2 3------ 55.4-----
2024-06-19 11:13 pmNNW 2 3------ 55.8-----
2024-06-19 11:03 pmWNW 2 4------ 56.1-----
2024-06-19 10:53 pmNNW 2 4------ 56.5-----
2024-06-19 10:43 pm NW 3 5------ 56.5-----
2024-06-19 10:33 pmNNW 3 5------ 56.8-----
2024-06-19 10:23 pm NW 3 5------ 57.2-----
2024-06-19 10:13 pm NW 4 6------ 57.4-----
2024-06-19 10:03 pm NW 4 8------ 57.9-----
2024-06-19 09:53 pmNNW 3 5------ 58.6-----
2024-06-19 09:43 pmWNW 4 7------ 59.5-----
2024-06-19 09:33 pm NW 4 7------ 60.3-----
2024-06-19 09:23 pm NW 3 5------ 60.8-----
2024-06-19 09:13 pm NW 3 5------ 61.7-----
2024-06-19 09:03 pm W 3 7------ 62.8-----
2024-06-19 08:53 pmSSW 5 10------ 63.7-----